createdAt,value
2022-10-16T00:00:51.395Z,100515.94
2022-10-16T00:05:54.183Z,100521.22
2022-10-16T00:11:01.599Z,100525.34
2022-10-16T00:16:06.647Z,100520.09
2022-10-16T00:21:11.808Z,100513.81
2022-10-16T00:26:16.414Z,100525.00
2022-10-16T00:31:23.025Z,100522.19
2022-10-16T00:36:27.536Z,100525.00
2022-10-16T00:41:31.544Z,100531.94
2022-10-16T00:46:39.097Z,100537.88
2022-10-16T00:51:44.454Z,100542.34
2022-10-16T00:56:48.402Z,100544.63
2022-10-16T01:01:52.996Z,100537.63
2022-10-16T01:07:02.948Z,100550.69
2022-10-16T01:12:10.474Z,100556.66
2022-10-16T01:17:20.789Z,100558.91
2022-10-16T01:22:28.150Z,100561.84
2022-10-16T01:27:37.449Z,100567.59
2022-10-16T01:32:43.746Z,100572.28
2022-10-16T01:37:51.339Z,100570.56
2022-10-16T01:43:01.920Z,100569.94
2022-10-16T01:48:08.859Z,100564.03
2022-10-16T01:53:16.055Z,100563.53
2022-10-16T01:58:20.368Z,100570.09
2022-10-16T02:03:23.561Z,100567.81
2022-10-16T02:08:29.183Z,100571.47
2022-10-16T02:13:39.595Z,100562.78
2022-10-16T02:18:44.479Z,100569.69
2022-10-16T02:23:53.471Z,100577.38
2022-10-16T02:29:02.606Z,100581.81
2022-10-16T02:34:08.516Z,100588.56
2022-10-16T02:39:12.687Z,100583.03
2022-10-16T02:44:17.076Z,100579.50
2022-10-16T02:49:19.881Z,100579.97
2022-10-16T02:54:22.764Z,100584.09
2022-10-16T02:59:26.887Z,100578.03
2022-10-16T03:04:29.650Z,100575.09
2022-10-16T03:09:32.542Z,100570.69
2022-10-16T03:14:36.799Z,100567.31
2022-10-16T03:19:39.578Z,100569.72
2022-10-16T03:24:42.353Z,100568.28
2022-10-16T03:29:46.498Z,100569.25
2022-10-16T03:34:49.327Z,100580.09
2022-10-16T03:39:52.510Z,100577.94
2022-10-16T03:44:56.696Z,100585.09
2022-10-16T03:49:59.616Z,100590.47
2022-10-16T03:55:02.597Z,100580.06
2022-10-16T04:00:07.927Z,100584.38
2022-10-16T04:05:14.769Z,100590.22
2022-10-16T04:10:17.859Z,100601.84
2022-10-16T04:15:22.033Z,100610.31
2022-10-16T04:20:24.909Z,100609.50
2022-10-16T04:25:27.810Z,100629.59
2022-10-16T04:30:31.955Z,100613.56
2022-10-16T04:35:34.738Z,100619.19
2022-10-16T04:40:37.928Z,100628.41
2022-10-16T04:45:42.280Z,100640.75
2022-10-16T04:50:45.066Z,100636.44
2022-10-16T04:55:48.228Z,100633.69
2022-10-16T05:00:52.507Z,100635.41
2022-10-16T05:05:55.786Z,100644.59
2022-10-16T05:10:58.616Z,100646.84
2022-10-16T05:16:02.809Z,100650.06
2022-10-16T05:21:06.797Z,100671.72
2022-10-16T05:26:10.771Z,100669.31
2022-10-16T05:31:15.006Z,100666.84
2022-10-16T05:36:19.206Z,100674.38
2022-10-16T05:41:22.918Z,100669.75
2022-10-16T05:46:27.088Z,100662.69
2022-10-16T05:51:30.154Z,100668.97
2022-10-16T05:56:33.266Z,100680.84
2022-10-16T06:01:37.430Z,100681.84
2022-10-16T06:06:40.302Z,100684.41
2022-10-16T06:11:43.261Z,100678.41
2022-10-16T06:16:47.376Z,100683.28
2022-10-16T06:21:50.200Z,100686.13
2022-10-16T06:26:52.955Z,100695.19
2022-10-16T06:31:57.062Z,100689.81
2022-10-16T06:36:59.797Z,100697.66
2022-10-16T06:42:02.514Z,100705.16
2022-10-16T06:47:13.557Z,100713.53
2022-10-16T06:52:17.076Z,100728.66
2022-10-16T06:57:20.493Z,100728.91
2022-10-16T07:02:25.211Z,100731.09
2022-10-16T07:07:28.420Z,100731.81
2022-10-16T07:12:31.212Z,100741.16
2022-10-16T07:17:35.306Z,100753.47
2022-10-16T07:22:38.043Z,100757.84
2022-10-16T07:27:41.020Z,100760.06
2022-10-16T07:32:45.232Z,100768.41
2022-10-16T07:37:48.553Z,100784.09
2022-10-16T07:42:51.379Z,100791.69
2022-10-16T07:47:55.516Z,100792.41
2022-10-16T07:52:58.309Z,100793.38
2022-10-16T07:58:01.528Z,100796.59
2022-10-16T08:03:05.912Z,100802.56
2022-10-16T08:08:08.804Z,100806.25
2022-10-16T08:13:12.166Z,100822.25
2022-10-16T08:18:17.169Z,100818.22
2022-10-16T08:23:20.293Z,100834.13
2022-10-16T08:28:24.136Z,100831.00
2022-10-16T08:33:28.260Z,100832.69
2022-10-16T08:38:31.218Z,100830.06
2022-10-16T08:43:46.734Z,100831.81
2022-10-16T08:48:53.748Z,100833.19
2022-10-16T08:53:58.911Z,100833.53
2022-10-16T08:59:03.310Z,100847.84
2022-10-16T09:04:27.970Z,100853.81
2022-10-16T09:09:56.496Z,100862.94
2022-10-16T09:15:08.908Z,100863.34
2022-10-16T09:20:31.252Z,100875.81
2022-10-16T09:25:35.774Z,100881.34
2022-10-16T09:30:40.348Z,100894.13
2022-10-16T09:35:46.571Z,100887.06
2022-10-16T09:40:58.841Z,100873.69
2022-10-16T09:46:08.350Z,100881.13
2022-10-16T09:51:21.837Z,100885.94
2022-10-16T09:56:26.424Z,100900.59
2022-10-16T10:01:33.717Z,100910.47
2022-10-16T10:06:42.546Z,100923.81
2022-10-16T10:11:50.122Z,100921.66
2022-10-16T10:16:54.780Z,100926.50
2022-10-16T10:21:58.915Z,100937.44
2022-10-16T10:27:10.334Z,100941.16
2022-10-16T10:32:28.618Z,100935.03
2022-10-16T10:37:48.602Z,100939.69
2022-10-16T10:42:55.660Z,100944.59
2022-10-16T10:48:14.477Z,100939.31
2022-10-16T10:53:34.687Z,100941.38
2022-10-16T10:59:03.122Z,100943.84
2022-10-16T11:04:31.839Z,100933.88
2022-10-16T11:09:41.392Z,100939.84
2022-10-16T11:14:51.648Z,100940.63
2022-10-16T11:19:58.785Z,100950.53
2022-10-16T11:25:13.945Z,100962.09
2022-10-16T11:30:22.302Z,100969.25
2022-10-16T11:35:30.543Z,100975.44
2022-10-16T11:40:41.968Z,100985.09
2022-10-16T11:45:48.560Z,100991.19
2022-10-16T11:50:55.443Z,100986.91
2022-10-16T11:55:59.670Z,100994.94
2022-10-16T12:01:15.577Z,101016.94
2022-10-16T12:06:33.533Z,101009.84
2022-10-16T12:11:40.791Z,101027.19
2022-10-16T12:16:53.608Z,101033.63
2022-10-16T12:21:59.041Z,101032.53
2022-10-16T12:27:03.752Z,101037.38
2022-10-16T12:32:41.933Z,101047.19
2022-10-16T12:37:46.648Z,101044.94
2022-10-16T12:42:50.952Z,101056.47
2022-10-16T12:47:55.852Z,101060.19
2022-10-16T12:52:59.126Z,101076.13
2022-10-16T12:58:21.310Z,101077.56
2022-10-16T13:04:03.386Z,101086.88
2022-10-16T13:09:35.430Z,101082.94
2022-10-16T13:15:01.835Z,101089.25
2022-10-16T13:20:19.333Z,101093.41
2022-10-16T13:25:33.932Z,101105.66
2022-10-16T13:30:42.125Z,101120.75
2022-10-16T13:35:49.852Z,101126.63
2022-10-16T13:40:55.867Z,101134.56
2022-10-16T13:46:02.862Z,101131.81
2022-10-16T13:51:08.887Z,101141.81
2022-10-16T13:56:14.146Z,101140.63
2022-10-16T14:01:22.192Z,101163.91
2022-10-16T14:06:25.007Z,101159.75
2022-10-16T14:11:28.339Z,101170.78
2022-10-16T14:16:34.577Z,101181.50
2022-10-16T14:21:38.256Z,101182.81
2022-10-16T14:26:49.700Z,101191.78
2022-10-16T14:31:59.439Z,101197.75
2022-10-16T14:42:18.156Z,101217.44
2022-10-16T14:47:26.770Z,101215.78
2022-10-16T14:52:29.784Z,101226.69
2022-10-16T14:57:38.076Z,101226.31
2022-10-16T15:02:42.140Z,101231.81
2022-10-16T15:07:45.110Z,101240.25
2022-10-16T15:12:48.612Z,101240.78
2022-10-16T15:17:54.624Z,101255.66
2022-10-16T15:22:58.021Z,101251.09
2022-10-16T15:28:11.896Z,101255.81
2022-10-16T15:33:21.757Z,101256.97
2022-10-16T15:38:25.200Z,101262.41
2022-10-16T15:43:29.110Z,101275.22
2022-10-16T15:48:34.825Z,101279.81
2022-10-16T15:53:47.329Z,101287.69
2022-10-16T15:58:50.556Z,101298.41
2022-10-16T16:03:56.969Z,101300.94
2022-10-16T16:14:06.131Z,101306.22
2022-10-16T16:19:11.710Z,101311.53
2022-10-16T16:24:14.999Z,101318.47
2022-10-16T16:29:18.446Z,101328.44
2022-10-16T16:34:22.707Z,101342.41
2022-10-16T16:39:26.289Z,101352.63
2022-10-16T16:44:29.192Z,101360.56
2022-10-16T16:49:33.614Z,101370.47
2022-10-16T16:54:36.484Z,101384.72
2022-10-16T16:59:40.687Z,101397.72
2022-10-16T17:04:44.918Z,101407.72
2022-10-16T17:09:47.847Z,101406.78
2022-10-16T17:14:52.643Z,101413.31
2022-10-16T17:19:56.796Z,101415.59
2022-10-16T17:24:59.593Z,101422.69
2022-10-16T17:30:02.411Z,101429.66
2022-10-16T17:35:08.708Z,101439.44
2022-10-16T17:45:19.332Z,101469.38
2022-10-16T17:50:25.829Z,101467.69
2022-10-16T17:55:29.008Z,101488.13
2022-10-16T18:00:32.117Z,101494.72
2022-10-16T18:05:39.336Z,101489.75
2022-10-16T18:10:47.333Z,101494.53
2022-10-16T18:16:01.082Z,101491.59
2022-10-16T18:21:09.194Z,101494.66
2022-10-16T18:26:13.938Z,101504.50
2022-10-16T18:31:21.651Z,101517.25
2022-10-16T18:36:29.944Z,101531.59
2022-10-16T18:41:41.776Z,101526.06
2022-10-16T18:46:45.224Z,101538.03
2022-10-16T18:51:52.957Z,101542.56
2022-10-16T18:56:56.406Z,101543.44
2022-10-16T19:01:59.754Z,101540.03
2022-10-16T19:07:05.051Z,101536.22
2022-10-16T19:12:14.891Z,101542.31
2022-10-16T19:17:18.548Z,101539.59
2022-10-16T19:22:51.931Z,101538.13
2022-10-16T19:27:56.804Z,101534.41
2022-10-16T19:33:06.832Z,101544.31
2022-10-16T19:38:19.838Z,101558.75
2022-10-16T19:43:24.509Z,101563.03
2022-10-16T19:48:27.448Z,101574.75
2022-10-16T19:53:46.604Z,101581.56
2022-10-16T20:13:07.620Z,101568.13
2022-10-16T20:18:19.500Z,101579.75
2022-10-16T20:38:24.421Z,101585.41
2022-10-16T20:48:52.491Z,101594.09
2022-10-16T20:53:57.261Z,101605.28
2022-10-16T20:59:01.650Z,101607.53
2022-10-16T21:04:08.447Z,101613.19
2022-10-16T21:09:11.315Z,101614.66
2022-10-16T21:14:15.680Z,101628.44
2022-10-16T21:19:19.345Z,101631.91
2022-10-16T21:24:27.831Z,101644.94
2022-10-16T21:29:32.247Z,101636.31
2022-10-16T21:34:36.215Z,101645.38
2022-10-16T21:39:39.396Z,101654.16
2022-10-16T21:44:43.617Z,101636.88
2022-10-16T21:49:46.539Z,101633.50
2022-10-16T21:54:58.239Z,101654.50
2022-10-16T22:00:05.439Z,101645.91
2022-10-16T22:05:10.360Z,101648.06
2022-10-16T22:10:13.292Z,101641.47
2022-10-16T22:15:17.707Z,101654.50
2022-10-16T22:20:20.602Z,101652.03
2022-10-16T22:25:26.669Z,101652.59
2022-10-16T22:30:30.917Z,101643.88
2022-10-16T22:35:40.059Z,101644.13
2022-10-16T22:40:42.860Z,101634.88
2022-10-16T22:45:47.080Z,101631.84
2022-10-16T22:50:50.061Z,101630.81
2022-10-16T22:55:53.200Z,101642.53
2022-10-16T23:06:00.252Z,101638.50
2022-10-16T23:11:07.255Z,101626.19
2022-10-16T23:16:13.172Z,101617.81
2022-10-16T23:21:17.879Z,101614.66
2022-10-16T23:26:23.448Z,101614.88
2022-10-16T23:31:28.373Z,101614.56
2022-10-16T23:36:31.585Z,101600.88
2022-10-16T23:41:34.481Z,101564.41
2022-10-16T23:46:39.549Z,101573.78
2022-10-16T23:51:42.376Z,101569.25
2022-10-16T23:56:45.171Z,101559.56
